createdAt,value
2018-09-27T00:01:55.918Z,2.17
2018-09-27T00:04:22.898Z,1.80
2018-09-27T00:06:49.820Z,1.87
2018-09-27T00:09:16.760Z,2.17
2018-09-27T00:11:43.808Z,1.80
2018-09-27T00:14:10.758Z,1.90
2018-09-27T00:16:37.703Z,2.07
2018-09-27T00:19:04.647Z,1.90
2018-09-27T00:21:31.575Z,1.63
2018-09-27T00:23:58.515Z,1.93
2018-09-27T00:26:25.458Z,1.83
2018-09-27T00:28:52.427Z,1.80
2018-09-27T00:31:19.333Z,1.90
2018-09-27T00:33:46.318Z,2.02
2018-09-27T00:36:13.276Z,1.83
2018-09-27T00:38:40.203Z,1.70
2018-09-27T00:41:07.142Z,1.70
2018-09-27T00:43:34.070Z,1.80
2018-09-27T00:46:00.992Z,2.20
2018-09-27T00:48:27.932Z,1.97
2018-09-27T00:50:54.892Z,3.37
2018-09-27T00:53:21.814Z,2.50
2018-09-27T00:55:48.745Z,2.63
2018-09-27T00:58:15.690Z,1.80
2018-09-27T01:00:42.656Z,2.17
2018-09-27T01:03:09.568Z,1.90
2018-09-27T01:05:37.033Z,2.07
2018-09-27T01:08:04.224Z,2.00
2018-09-27T01:10:31.122Z,2.20
2018-09-27T01:12:58.020Z,2.30
2018-09-27T01:15:24.954Z,2.10
2018-09-27T01:17:52.758Z,2.57
2018-09-27T01:20:19.635Z,1.93
2018-09-27T01:22:46.593Z,1.93
2018-09-27T01:25:13.538Z,2.33
2018-09-27T01:27:40.477Z,2.30
2018-09-27T01:30:07.623Z,2.30
2018-09-27T01:32:34.506Z,2.30
2018-09-27T01:35:01.415Z,3.10
2018-09-27T01:37:28.291Z,2.30
2018-09-27T01:39:55.199Z,2.60
2018-09-27T01:42:22.060Z,2.20
2018-09-27T01:44:48.991Z,2.20
2018-09-27T01:47:15.957Z,2.27
2018-09-27T01:49:42.896Z,1.90
2018-09-27T01:52:09.793Z,2.40
2018-09-27T01:54:36.684Z,2.23
2018-09-27T01:57:03.596Z,2.03
2018-09-27T01:59:40.534Z,2.50
2018-09-27T02:02:07.438Z,2.20
2018-09-27T02:04:34.410Z,2.35
2018-09-27T02:07:01.324Z,2.40
2018-09-27T02:09:28.253Z,2.60
2018-09-27T02:11:55.134Z,2.72
2018-09-27T02:14:22.015Z,2.60
2018-09-27T02:16:48.912Z,2.77
2018-09-27T02:19:16.098Z,2.60
2018-09-27T02:21:43.087Z,3.40
2018-09-27T02:24:10.027Z,3.15
2018-09-27T02:26:36.981Z,3.17
2018-09-27T02:29:03.864Z,2.80
2018-09-27T02:31:30.782Z,2.80
2018-09-27T02:33:57.696Z,2.73
2018-09-27T02:36:24.626Z,3.10
2018-09-27T02:38:51.592Z,2.90
2018-09-27T02:41:18.510Z,2.70
2018-09-27T02:43:45.416Z,2.90
2018-09-27T02:46:12.307Z,2.70
2018-09-27T02:48:39.185Z,2.77
2018-09-27T02:51:06.118Z,3.20
2018-09-27T02:53:33.014Z,3.17
2018-09-27T02:55:59.961Z,3.10
2018-09-27T02:58:26.978Z,3.40
2018-09-27T03:00:53.891Z,2.87
2018-09-27T03:03:20.803Z,3.30
2018-09-27T03:05:47.704Z,2.97
2018-09-27T03:08:14.615Z,3.43
2018-09-27T03:10:42.129Z,3.20
2018-09-27T03:13:09.050Z,3.27
2018-09-27T03:15:35.942Z,3.57
2018-09-27T03:18:02.877Z,3.60
2018-09-27T03:20:29.781Z,3.37
2018-09-27T03:22:56.675Z,3.27
2018-09-27T03:25:23.571Z,3.40
2018-09-27T03:27:50.505Z,3.30
2018-09-27T03:30:17.401Z,2.90
2018-09-27T03:32:44.332Z,3.20
2018-09-27T03:35:11.250Z,3.30
2018-09-27T03:37:38.172Z,3.13
2018-09-27T03:40:05.130Z,3.17
2018-09-27T03:42:32.012Z,3.20
2018-09-27T03:44:58.926Z,2.77
2018-09-27T03:47:25.846Z,2.67
2018-09-27T03:49:52.722Z,2.80
2018-09-27T03:52:19.613Z,3.50
2018-09-27T03:54:46.516Z,3.93
2018-09-27T03:57:13.413Z,3.43
2018-09-27T03:59:40.316Z,3.15
2018-09-27T04:02:07.233Z,2.83
2018-09-27T04:04:34.125Z,3.27
2018-09-27T04:07:01.054Z,3.33
2018-09-27T04:09:27.952Z,3.10
2018-09-27T04:11:54.849Z,3.10
2018-09-27T04:14:21.743Z,2.93
2018-09-27T04:16:48.728Z,2.90
2018-09-27T04:19:15.677Z,3.30
2018-09-27T04:21:42.612Z,3.17
2018-09-27T04:24:09.565Z,3.83
2018-09-27T04:26:36.451Z,2.90
2018-09-27T04:29:03.398Z,3.00
2018-09-27T04:31:30.716Z,3.00
2018-09-27T04:33:57.667Z,3.70
2018-09-27T04:36:24.583Z,2.93
2018-09-27T04:38:51.609Z,2.93
2018-09-27T04:41:18.552Z,3.03
2018-09-27T04:43:45.570Z,3.30
2018-09-27T04:46:12.512Z,3.20
2018-09-27T04:48:39.416Z,2.90
2018-09-27T04:51:06.358Z,3.40
2018-09-27T04:53:33.310Z,3.13
2018-09-27T04:56:00.212Z,3.03
2018-09-27T04:58:27.108Z,3.27
2018-09-27T05:00:53.992Z,2.90
2018-09-27T05:03:21.658Z,2.60
2018-09-27T05:05:48.591Z,2.60
2018-09-27T05:08:15.550Z,3.40
2018-09-27T05:10:42.515Z,3.37
2018-09-27T05:13:09.399Z,3.40
2018-09-27T05:15:36.384Z,3.10
2018-09-27T05:18:03.280Z,3.00
2018-09-27T05:20:30.252Z,3.10
2018-09-27T05:22:57.133Z,3.17
2018-09-27T05:25:24.100Z,3.60
2018-09-27T05:27:51.101Z,3.03
2018-09-27T05:30:18.018Z,2.90
2018-09-27T05:32:45.772Z,2.93
2018-09-27T05:35:12.690Z,3.27
2018-09-27T05:37:39.650Z,3.00
2018-09-27T05:40:06.595Z,3.27
2018-09-27T05:42:33.554Z,5.20
2018-09-27T05:45:00.491Z,6.77
2018-09-27T05:47:27.399Z,5.03
2018-09-27T05:49:54.339Z,6.40
2018-09-27T05:52:21.446Z,8.53
2018-09-27T05:54:48.399Z,9.37
2018-09-27T05:57:15.288Z,4.20
2018-09-27T05:59:42.210Z,16.63
2018-09-27T06:02:09.436Z,7.53
2018-09-27T06:04:36.358Z,10.32
2018-09-27T06:07:03.422Z,12.50
2018-09-27T06:09:30.471Z,3.62
2018-09-27T06:11:57.370Z,3.83
2018-09-27T06:14:24.315Z,6.03
2018-09-27T06:16:51.292Z,7.77
2018-09-27T06:19:18.311Z,4.23
2018-09-27T06:21:45.211Z,4.53
2018-09-27T06:24:12.110Z,3.60
2018-09-27T06:26:39.057Z,3.60
2018-09-27T06:29:05.999Z,3.50
2018-09-27T06:31:32.927Z,3.20
2018-09-27T06:33:59.887Z,3.42
2018-09-27T06:36:26.860Z,3.83
2018-09-27T06:38:53.816Z,4.93
2018-09-27T06:41:20.835Z,4.13
2018-09-27T06:43:47.775Z,9.30
2018-09-27T06:46:14.725Z,5.20
2018-09-27T06:48:41.764Z,8.40
2018-09-27T06:51:08.687Z,5.23
2018-09-27T06:53:35.974Z,7.87
2018-09-27T06:56:03.094Z,5.97
2018-09-27T07:03:24.339Z,6.37
2018-09-27T07:05:51.260Z,4.43
2018-09-27T07:08:18.231Z,4.83
2018-09-27T07:10:45.248Z,7.63
2018-09-27T07:13:12.158Z,6.97
2018-09-27T07:15:39.144Z,7.70
2018-09-27T07:18:06.101Z,8.00
2018-09-27T07:20:33.112Z,3.87
2018-09-27T07:23:00.020Z,3.20
2018-09-27T07:25:26.973Z,3.22
2018-09-27T07:27:53.886Z,3.25
2018-09-27T07:30:20.829Z,3.53
2018-09-27T07:32:47.747Z,3.17
2018-09-27T07:35:14.729Z,3.20
2018-09-27T07:37:41.680Z,3.20
2018-09-27T07:40:08.627Z,3.47
2018-09-27T07:42:35.558Z,6.47
2018-09-27T07:45:02.584Z,7.93
2018-09-27T07:47:29.547Z,7.53
2018-09-27T07:49:56.488Z,6.47
2018-09-27T07:52:23.422Z,7.50
2018-09-27T07:54:50.440Z,4.80
2018-09-27T07:57:17.453Z,4.00
2018-09-27T07:59:44.440Z,3.57
2018-09-27T08:02:11.374Z,3.40
2018-09-27T08:04:38.292Z,3.90
2018-09-27T08:07:05.358Z,3.87
2018-09-27T08:09:32.308Z,3.50
2018-09-27T08:11:59.387Z,3.80
2018-09-27T08:14:26.273Z,3.90
2018-09-27T08:16:53.232Z,3.90
2018-09-27T08:19:20.243Z,4.08
2018-09-27T08:21:47.215Z,3.77
2018-09-27T08:24:14.354Z,3.60
2018-09-27T08:26:41.299Z,3.60
2018-09-27T08:29:08.298Z,5.83
2018-09-27T08:31:35.378Z,9.30
2018-09-27T08:34:02.789Z,4.92
2018-09-27T08:36:29.811Z,4.40
2018-09-27T08:38:56.834Z,4.70
2018-09-27T08:41:23.847Z,4.70
2018-09-27T08:43:50.974Z,3.87
2018-09-27T08:46:18.001Z,4.10
2018-09-27T08:48:45.059Z,3.47
2018-09-27T08:51:12.012Z,4.35
2018-09-27T08:53:39.053Z,8.38
2018-09-27T08:56:06.621Z,8.93
2018-09-27T08:58:33.648Z,11.93
2018-09-27T09:01:00.647Z,6.97
2018-09-27T09:03:27.650Z,4.85
2018-09-27T09:05:54.616Z,3.90
2018-09-27T09:08:21.598Z,4.92
2018-09-27T09:10:48.626Z,6.15
2018-09-27T09:13:16.279Z,4.47
2018-09-27T09:15:43.275Z,3.70
2018-09-27T09:18:10.244Z,3.72
2018-09-27T09:20:37.228Z,2.95
2018-09-27T09:23:04.202Z,3.17
2018-09-27T09:25:31.313Z,4.37
2018-09-27T09:27:58.367Z,8.15
2018-09-27T09:30:25.309Z,9.63
2018-09-27T09:32:52.379Z,6.10
2018-09-27T09:35:19.345Z,6.33
2018-09-27T09:37:46.323Z,4.50
2018-09-27T09:40:13.357Z,3.70
2018-09-27T09:42:40.427Z,3.45
2018-09-27T09:45:07.408Z,3.58
2018-09-27T09:47:34.404Z,3.60
2018-09-27T09:50:01.461Z,4.00
2018-09-27T09:52:28.352Z,2.92
2018-09-27T09:54:55.294Z,3.10
2018-09-27T09:57:22.238Z,2.92
2018-09-27T09:59:49.292Z,2.72
2018-09-27T10:02:16.368Z,2.67
2018-09-27T10:04:43.306Z,2.60
2018-09-27T10:07:10.344Z,2.92
2018-09-27T10:09:37.314Z,2.35
2018-09-27T10:12:05.124Z,2.90
2018-09-27T10:14:32.186Z,2.55
2018-09-27T10:16:59.130Z,2.27
2018-09-27T10:19:26.171Z,2.22
2018-09-27T10:21:53.279Z,2.47
2018-09-27T10:24:20.141Z,2.42
2018-09-27T10:26:47.168Z,2.80
2018-09-27T10:29:14.133Z,2.60
2018-09-27T10:31:41.084Z,2.70
2018-09-27T10:34:08.090Z,2.50
2018-09-27T10:36:35.023Z,2.12
2018-09-27T10:39:02.055Z,2.33
2018-09-27T10:41:28.976Z,2.10
2018-09-27T10:43:56.533Z,1.95
2018-09-27T10:46:23.584Z,1.98
2018-09-27T10:48:50.540Z,2.33
2018-09-27T10:51:17.520Z,2.00
2018-09-27T10:53:44.400Z,2.05
2018-09-27T10:56:11.374Z,2.00
2018-09-27T10:58:38.346Z,2.58
2018-09-27T11:01:05.362Z,2.47
2018-09-27T11:03:32.290Z,2.15
2018-09-27T11:05:59.394Z,1.77
2018-09-27T11:08:26.362Z,1.70
2018-09-27T11:10:53.466Z,1.80
2018-09-27T11:13:20.331Z,1.82
2018-09-27T11:15:47.281Z,1.60
2018-09-27T11:18:14.246Z,1.60
2018-09-27T11:20:41.241Z,1.60
2018-09-27T11:23:08.264Z,1.45
2018-09-27T11:25:35.201Z,1.40
2018-09-27T11:28:02.187Z,1.30
2018-09-27T11:30:29.944Z,1.17
2018-09-27T11:32:57.127Z,1.45
2018-09-27T11:35:24.017Z,1.50
2018-09-27T11:37:50.938Z,1.30
2018-09-27T11:40:17.902Z,1.47
2018-09-27T11:42:44.922Z,1.52
2018-09-27T11:45:11.888Z,1.65
2018-09-27T11:47:38.847Z,1.37
2018-09-27T11:50:06.023Z,1.65
2018-09-27T11:52:32.805Z,1.67
2018-09-27T11:54:59.767Z,1.70
2018-09-27T11:57:27.865Z,1.62
2018-09-27T11:59:54.999Z,1.40
2018-09-27T12:02:22.016Z,1.57
2018-09-27T12:04:48.950Z,1.40
2018-09-27T12:12:10.602Z,1.60
2018-09-27T12:14:37.621Z,1.75
2018-09-27T12:17:04.554Z,1.60
2018-09-27T12:19:31.555Z,1.75
2018-09-27T12:21:58.707Z,1.42
2018-09-27T12:24:25.764Z,1.90
2018-09-27T12:26:52.774Z,1.70
2018-09-27T12:29:19.710Z,2.25
2018-09-27T12:31:46.654Z,1.67
2018-09-27T12:34:13.583Z,1.50
2018-09-27T12:36:40.617Z,2.40
2018-09-27T12:39:09.367Z,4.33
2018-09-27T12:41:37.233Z,2.37
2018-09-27T12:44:04.232Z,2.83
2018-09-27T12:46:31.322Z,1.92
2018-09-27T12:48:58.440Z,1.75
2018-09-27T12:51:25.439Z,1.85
2018-09-27T12:53:52.542Z,3.00
2018-09-27T12:56:19.486Z,3.02
2018-09-27T12:58:47.364Z,3.45
2018-09-27T13:01:14.379Z,2.60
2018-09-27T13:03:42.151Z,2.02
2018-09-27T13:06:09.089Z,1.80
2018-09-27T13:08:36.158Z,2.00
2018-09-27T13:11:03.020Z,1.80
2018-09-27T13:13:30.149Z,1.95
2018-09-27T13:15:56.951Z,1.90
2018-09-27T13:18:23.902Z,2.35
2018-09-27T13:20:51.598Z,1.90
2018-09-27T13:23:19.254Z,2.05
2018-09-27T13:25:46.271Z,2.12
2018-09-27T13:28:13.197Z,2.25
2018-09-27T13:30:40.174Z,2.20
2018-09-27T13:33:07.213Z,2.17
2018-09-27T13:35:35.379Z,2.27
2018-09-27T13:38:02.322Z,2.50
2018-09-27T13:40:29.288Z,2.87
2018-09-27T13:42:56.286Z,2.40
2018-09-27T13:45:23.179Z,2.08
2018-09-27T13:47:50.134Z,2.35
2018-09-27T13:50:17.059Z,2.35
2018-09-27T13:52:44.591Z,2.65
2018-09-27T13:55:12.279Z,2.72
2018-09-27T13:57:39.241Z,2.65
2018-09-27T14:00:06.648Z,2.55
2018-09-27T14:02:33.693Z,2.40
2018-09-27T14:05:00.665Z,4.08
2018-09-27T14:07:27.623Z,4.78
2018-09-27T14:09:54.621Z,6.28
2018-09-27T14:12:21.597Z,6.20
2018-09-27T14:14:48.586Z,4.90
2018-09-27T14:17:15.580Z,7.62
2018-09-27T14:19:42.693Z,7.85
2018-09-27T14:22:09.697Z,8.35
2018-09-27T14:24:36.675Z,4.62
2018-09-27T14:27:03.660Z,4.45
2018-09-27T14:29:30.668Z,3.25
2018-09-27T14:31:58.285Z,2.83
2018-09-27T14:34:25.900Z,3.20
2018-09-27T14:36:52.928Z,3.33
2018-09-27T14:39:19.912Z,3.60
2018-09-27T14:41:46.935Z,5.12
2018-09-27T14:44:13.879Z,3.50
2018-09-27T14:46:41.851Z,2.92
2018-09-27T14:49:08.906Z,2.65
2018-09-27T14:51:35.868Z,2.55
2018-09-27T14:54:02.824Z,2.80
2018-09-27T14:56:29.745Z,2.65
2018-09-27T14:58:56.784Z,3.08
2018-09-27T15:01:23.681Z,6.87
2018-09-27T15:03:50.628Z,3.55
2018-09-27T15:06:17.589Z,2.60
2018-09-27T15:08:44.542Z,2.50
2018-09-27T15:11:11.496Z,2.22
2018-09-27T15:13:38.443Z,3.67
2018-09-27T15:16:05.470Z,4.50
2018-09-27T15:18:32.444Z,4.92
2018-09-27T15:20:59.451Z,3.62
2018-09-27T15:23:27.315Z,3.90
2018-09-27T15:25:54.305Z,4.42
2018-09-27T15:28:21.275Z,9.98
2018-09-27T15:30:48.363Z,6.12
2018-09-27T15:33:15.223Z,4.90
2018-09-27T15:35:42.172Z,5.83
2018-09-27T15:38:09.124Z,3.60
2018-09-27T15:40:36.092Z,3.30
2018-09-27T15:43:03.097Z,2.87
2018-09-27T15:45:30.057Z,2.95
2018-09-27T15:47:57.017Z,3.58
2018-09-27T15:50:25.281Z,3.33
2018-09-27T15:52:52.271Z,3.55
2018-09-27T15:55:19.223Z,3.40
2018-09-27T15:57:46.205Z,2.92
2018-09-27T16:00:13.835Z,3.35
2018-09-27T16:02:40.825Z,3.65
2018-09-27T16:05:07.759Z,4.20
2018-09-27T16:07:35.362Z,4.12
2018-09-27T16:10:02.363Z,5.62
2018-09-27T16:12:29.310Z,3.98
2018-09-27T16:14:56.322Z,4.33
2018-09-27T16:17:23.253Z,4.40
2018-09-27T16:19:50.225Z,4.12
2018-09-27T16:22:17.359Z,4.62
2018-09-27T16:24:44.329Z,4.92
2018-09-27T16:27:11.311Z,4.35
2018-09-27T16:29:38.247Z,4.72
2018-09-27T16:32:05.220Z,5.17
2018-09-27T16:34:32.145Z,5.20
2018-09-27T16:36:59.080Z,4.22
2018-09-27T16:39:26.787Z,4.00
2018-09-27T16:41:53.738Z,4.03
2018-09-27T16:44:20.665Z,4.30
2018-09-27T16:46:47.661Z,7.30
2018-09-27T16:49:14.629Z,8.30
2018-09-27T16:51:41.572Z,8.60
2018-09-27T16:54:08.502Z,8.15
2018-09-27T16:56:35.455Z,6.75
2018-09-27T16:59:02.352Z,5.60
2018-09-27T17:01:29.258Z,5.75
2018-09-27T17:03:56.283Z,5.62
2018-09-27T17:06:23.217Z,8.15
2018-09-27T17:08:50.165Z,8.95
2018-09-27T17:11:17.629Z,9.53
2018-09-27T17:13:44.588Z,8.85
2018-09-27T17:16:11.562Z,8.65
2018-09-27T17:18:38.576Z,7.53
2018-09-27T17:21:05.532Z,8.18
2018-09-27T17:23:32.540Z,11.70
2018-09-27T17:25:59.402Z,12.82
2018-09-27T17:28:26.360Z,10.75
2018-09-27T17:30:53.314Z,9.63
2018-09-27T17:33:20.283Z,10.95
2018-09-27T17:35:47.266Z,10.75
2018-09-27T17:38:14.291Z,13.88
2018-09-27T17:40:41.327Z,24.02
2018-09-27T17:43:08.236Z,22.80
2018-09-27T17:45:35.175Z,22.77
2018-09-27T17:48:02.140Z,19.98
2018-09-27T17:50:29.059Z,21.20
2018-09-27T17:52:55.997Z,15.83
2018-09-27T17:55:22.975Z,9.05
2018-09-27T17:57:49.899Z,6.80
2018-09-27T18:00:17.878Z,6.67
2018-09-27T18:02:44.912Z,8.65
2018-09-27T18:05:18.984Z,6.10
2018-09-27T18:07:38.862Z,5.03
2018-09-27T18:10:05.790Z,5.50
2018-09-27T18:12:32.730Z,4.20
2018-09-27T18:14:59.665Z,4.37
2018-09-27T18:17:26.647Z,4.00
2018-09-27T18:19:53.563Z,3.85
2018-09-27T18:22:20.473Z,8.88
2018-09-27T18:24:47.421Z,7.37
2018-09-27T18:27:14.364Z,5.55
2018-09-27T18:29:41.289Z,4.58
2018-09-27T18:32:08.255Z,4.00
2018-09-27T18:34:35.188Z,3.58
2018-09-27T18:37:02.086Z,3.90
2018-09-27T18:39:28.980Z,3.83
2018-09-27T18:41:56.459Z,3.92
2018-09-27T18:44:23.402Z,3.70
2018-09-27T18:47:00.950Z,3.90
2018-09-27T18:49:27.934Z,7.08
2018-09-27T18:51:54.899Z,11.43
2018-09-27T18:54:21.858Z,6.97
2018-09-27T18:56:48.799Z,8.73
2018-09-27T18:59:15.719Z,7.72
2018-09-27T19:01:42.661Z,7.20
2018-09-27T19:04:09.586Z,13.38
2018-09-27T19:06:36.536Z,7.37
2018-09-27T19:09:04.841Z,4.78
2018-09-27T19:11:31.861Z,4.40
2018-09-27T19:13:58.804Z,5.05
2018-09-27T19:16:25.797Z,3.87
2018-09-27T19:18:52.795Z,5.25
2018-09-27T19:21:19.703Z,8.45
2018-09-27T19:23:46.689Z,7.80
2018-09-27T19:26:13.660Z,7.03
2018-09-27T19:28:40.570Z,7.83
2018-09-27T19:31:07.704Z,7.08
2018-09-27T19:33:34.626Z,7.75
2018-09-27T19:36:01.579Z,6.60
2018-09-27T19:38:28.557Z,6.30
2018-09-27T19:40:55.600Z,7.30
2018-09-27T19:43:22.589Z,8.13
2018-09-27T19:45:50.491Z,7.15
2018-09-27T19:48:17.501Z,8.48
2018-09-27T19:50:44.727Z,8.33
2018-09-27T19:53:11.757Z,8.10
2018-09-27T20:00:30.568Z,5.85
2018-09-27T20:02:57.560Z,6.97
2018-09-27T20:05:31.734Z,7.78
2018-09-27T20:07:58.724Z,7.60
2018-09-27T20:10:25.742Z,7.33
2018-09-27T20:12:52.917Z,5.80
2018-09-27T20:15:19.855Z,6.65
2018-09-27T20:17:46.807Z,6.75
2018-09-27T20:20:13.740Z,6.22
2018-09-27T20:22:40.725Z,6.35
2018-09-27T20:25:07.714Z,6.22
2018-09-27T20:27:34.637Z,5.92
2018-09-27T20:30:01.557Z,5.90
2018-09-27T20:32:29.410Z,5.47
2018-09-27T20:34:56.483Z,5.87
2018-09-27T20:37:23.816Z,5.90
2018-09-27T20:39:50.711Z,6.10
2018-09-27T20:42:18.007Z,6.30
2018-09-27T20:44:44.976Z,6.70
2018-09-27T20:47:11.952Z,6.50
2018-09-27T20:49:38.905Z,7.37
2018-09-27T20:52:05.851Z,6.75
2018-09-27T20:54:32.775Z,6.97
2018-09-27T20:57:00.008Z,6.65
2018-09-27T20:59:26.991Z,6.20
2018-09-27T21:01:53.941Z,6.05
2018-09-27T21:04:21.023Z,6.15
2018-09-27T21:06:47.968Z,6.45
2018-09-27T21:09:14.952Z,6.30
2018-09-27T21:11:42.514Z,6.58
2018-09-27T21:14:09.930Z,6.42
2018-09-27T21:16:37.125Z,5.80
2018-09-27T21:19:04.207Z,5.70
2018-09-27T21:21:31.163Z,5.60
2018-09-27T21:23:58.121Z,5.37
2018-09-27T21:26:25.146Z,4.95
2018-09-27T21:28:52.117Z,5.20
2018-09-27T21:31:19.037Z,4.90
2018-09-27T21:33:45.964Z,5.87
2018-09-27T21:36:13.181Z,5.45
2018-09-27T21:38:40.143Z,4.90
2018-09-27T21:41:07.133Z,5.20
2018-09-27T21:43:34.092Z,5.12
2018-09-27T21:46:01.058Z,5.35
2018-09-27T21:48:28.009Z,4.70
2018-09-27T21:50:54.932Z,5.22
2018-09-27T21:53:21.895Z,4.50
2018-09-27T21:55:48.831Z,4.12
2018-09-27T21:58:15.772Z,4.28
2018-09-27T22:00:42.717Z,4.42
2018-09-27T22:03:09.704Z,4.03
2018-09-27T22:05:36.684Z,4.28
2018-09-27T22:08:03.719Z,4.05
2018-09-27T22:10:31.206Z,3.55
2018-09-27T22:12:58.146Z,3.58
2018-09-27T22:15:25.063Z,3.92
2018-09-27T22:17:52.037Z,3.17
2018-09-27T22:20:18.993Z,4.00
2018-09-27T22:22:45.951Z,3.50
2018-09-27T22:25:12.883Z,3.52
2018-09-27T22:27:39.827Z,3.40
2018-09-27T22:30:07.174Z,3.85
2018-09-27T22:32:34.103Z,3.52
2018-09-27T22:35:01.049Z,3.80
2018-09-27T22:37:28.101Z,3.90
2018-09-27T22:39:55.060Z,3.22
2018-09-27T22:42:21.985Z,3.22
2018-09-27T22:44:48.940Z,3.98
2018-09-27T22:47:15.832Z,3.45
2018-09-27T22:49:42.804Z,3.30
2018-09-27T22:52:09.740Z,3.22
2018-09-27T22:54:36.626Z,3.40
2018-09-27T22:57:03.629Z,3.45
2018-09-27T22:59:30.569Z,3.70
2018-09-27T23:01:57.470Z,3.60
2018-09-27T23:04:24.400Z,3.60
2018-09-27T23:06:51.257Z,4.10
2018-09-27T23:09:18.197Z,3.30
2018-09-27T23:11:45.123Z,3.62
2018-09-27T23:14:12.084Z,3.77
2018-09-27T23:19:52.031Z,3.17
2018-09-27T23:22:18.959Z,3.37
2018-09-27T23:24:45.845Z,3.27
2018-09-27T23:27:12.822Z,3.22
2018-09-27T23:29:39.777Z,3.05
2018-09-27T23:32:06.666Z,3.35
2018-09-27T23:34:33.933Z,3.62
2018-09-27T23:37:00.875Z,4.00
2018-09-27T23:39:27.799Z,3.77
2018-09-27T23:41:54.694Z,4.08
2018-09-27T23:44:21.588Z,3.60
2018-09-27T23:46:48.486Z,3.70
2018-09-27T23:49:15.358Z,3.75
2018-09-27T23:51:42.232Z,3.70
2018-09-27T23:54:09.130Z,3.10
2018-09-27T23:56:36.003Z,3.52
2018-09-27T23:59:02.914Z,3.70
